Time;durP1;ratioP1;P1;durP2;ratioP2;P2;SDS_P1;SDS_P2;PMS_P1;PMS_P2;Temp;Humidity;BMP_temperature;BMP_pressure;BME280_temperature;BME280_humidity;BME280_pressure;Samples;Min_cycle;Max_cycle;Signal;HPM_P1;HPM_P2
2023/06/27 00:00:57;;;;;;;7.00;2.15;;;16.80;99.90;;;;;;4746751;30;20067;-92
2023/06/27 00:03:24;;;;;;;5.50;1.90;;;16.80;99.90;;;;;;4746302;30;20043;-92
2023/06/27 00:05:52;;;;;;;9.90;2.90;;;16.80;99.90;;;;;;4732399;30;20043;-91
2023/06/27 00:08:21;;;;;;;5.90;2.17;;;16.70;99.90;;;;;;4746353;30;20048;-91
2023/06/27 00:10:47;;;;;;;6.45;2.08;;;16.70;99.90;;;;;;4749070;30;20047;-91
2023/06/27 00:13:20;;;;;;;6.05;2.00;;;16.70;99.90;;;;;;4721607;30;20317;-91
2023/06/27 00:15:52;;;;;;;5.07;1.70;;;16.70;99.90;;;;;;4731714;30;20048;-91
2023/06/27 00:18:23;;;;;;;8.98;1.92;;;16.60;99.90;;;;;;4736117;30;20055;-91
2023/06/27 00:20:53;;;;;;;5.93;2.13;;;16.70;99.90;;;;;;4774112;30;20035;-91
2023/06/27 00:23:22;;;;;;;6.15;1.83;;;16.70;99.90;;;;;;4747967;30;20062;-90
2023/06/27 00:25:49;;;;;;;8.55;2.20;;;16.60;99.90;;;;;;4777539;30;20126;-91
2023/06/27 00:28:15;;;;;;;7.65;2.13;;;16.60;99.90;;;;;;4747528;30;20032;-91
2023/06/27 00:30:45;;;;;;;7.43;2.28;;;16.60;99.90;;;;;;4757588;30;20150;-91
2023/06/27 00:33:11;;;;;;;5.53;1.90;;;16.60;99.90;;;;;;4733349;30;20040;-93
2023/06/27 00:35:41;;;;;;;5.55;1.92;;;16.60;99.90;;;;;;4747857;30;20032;-90
2023/06/27 00:38:10;;;;;;;5.15;2.08;;;16.60;99.90;;;;;;4747874;30;20067;-91
2023/06/27 00:40:42;;;;;;;10.32;1.88;;;16.50;99.90;;;;;;4732629;30;20047;-90
2023/06/27 00:43:08;;;;;;;7.07;2.03;;;16.50;99.90;;;;;;4733021;30;20043;-91
2023/06/27 00:45:34;;;;;;;5.88;1.95;;;16.50;99.90;;;;;;4733278;30;20425;-91
2023/06/27 00:48:04;;;;;;;5.03;1.75;;;16.50;99.90;;;;;;4767996;30;20108;-93
2023/06/27 00:50:31;;;;;;;7.70;1.90;;;16.50;99.90;;;;;;4753526;30;20050;-92
2023/06/27 00:53:02;;;;;;;6.10;1.90;;;16.50;99.90;;;;;;4769875;30;20120;-91
2023/06/27 00:55:32;;;;;;;7.43;1.90;;;16.50;99.90;;;;;;4757664;30;20684;-91
2023/06/27 00:58:02;;;;;;;5.07;1.67;;;16.40;99.90;;;;;;4760955;30;20328;-91
2023/06/27 01:00:30;;;;;;;5.30;1.80;;;16.40;99.90;;;;;;4764890;30;20036;-92
2023/06/27 01:02:57;;;;;;;6.35;1.70;;;16.40;99.90;;;;;;4751015;30;20433;-92
2023/06/27 01:05:27;;;;;;;5.88;1.63;;;16.40;99.90;;;;;;4749178;30;20036;-91
2023/06/27 01:08:18;;;;;;;9.52;1.73;;;16.40;99.90;;;;;;4763533;30;20119;-91
2023/06/27 01:10:57;;;;;;;6.72;1.75;;;16.40;99.90;;;;;;4758772;30;20059;-91
2023/06/27 01:13:52;;;;;;;6.28;1.88;;;16.40;99.90;;;;;;4765135;30;20040;-91
2023/06/27 01:16:22;;;;;;;7.60;2.00;;;16.40;99.90;;;;;;4756728;30;20415;-91
2023/06/27 01:18:55;;;;;;;7.07;1.90;;;16.40;99.90;;;;;;4750607;30;20047;-90
2023/06/27 01:21:32;;;;;;;4.82;1.67;;;16.40;99.90;;;;;;4737096;30;20340;-92
2023/06/27 01:24:07;;;;;;;8.57;2.05;;;16.40;99.90;;;;;;4736582;30;20039;-91
2023/06/27 01:26:47;;;;;;;5.88;1.58;;;16.30;99.90;;;;;;4779444;30;20043;-91
2023/06/27 01:29:17;;;;;;;6.63;1.90;;;16.30;99.90;;;;;;4746347;30;20049;-91
2023/06/27 01:32:14;;;;;;;6.75;1.95;;;16.40;99.90;;;;;;4733588;30;20074;-90
2023/06/27 01:34:52;;;;;;;;;;;16.40;99.90;;;;;;4715516;30;20044;-89
2023/06/27 01:37:28;;;;;;;7.95;2.15;;;16.30;99.90;;;;;;4758605;30;19949;-91
2023/06/27 01:40:07;;;;;;;7.82;2.00;;;16.30;99.90;;;;;;4764713;30;20869;-92
2023/06/27 01:42:42;;;;;;;5.30;1.80;;;16.30;99.90;;;;;;4735798;30;20036;-91
2023/06/27 01:45:11;;;;;;;10.02;2.30;;;16.30;99.90;;;;;;4764014;30;20035;-93
2023/06/27 01:47:42;;;;;;;6.15;1.83;;;16.20;99.90;;;;;;4735315;30;20095;-91
2023/06/27 01:50:14;;;;;;;7.07;2.10;;;16.30;99.90;;;;;;4758962;30;20031;-91
2023/06/27 01:52:52;;;;;;;7.97;1.95;;;16.30;99.90;;;;;;4760274;30;20043;-91
2023/06/27 01:55:20;;;;;;;5.93;1.70;;;16.30;99.90;;;;;;4764608;30;20028;-91
2023/06/27 01:57:59;;;;;;;9.18;2.10;;;16.30;99.90;;;;;;4749978;30;20131;-92
2023/06/27 02:00:27;;;;;;;7.97;1.95;;;16.30;99.90;;;;;;4763614;30;20066;-90
2023/06/27 02:02:56;;;;;;;8.65;2.08;;;16.30;99.90;;;;;;4757570;30;20043;-91
2023/06/27 02:05:22;;;;;;;7.97;1.90;;;16.30;99.90;;;;;;4776687;30;20028;-92
2023/06/27 02:07:49;;;;;;;7.90;2.15;;;16.30;99.90;;;;;;4779655;30;20031;-90
2023/06/27 02:10:16;;;;;;;8.32;2.10;;;16.30;99.90;;;;;;4749705;30;20070;-90
2023/06/27 02:12:45;;;;;;;8.00;2.33;;;16.20;99.90;;;;;;4779728;30;20077;-90
2023/06/27 02:15:12;;;;;;;7.93;2.30;;;16.20;99.90;;;;;;4747155;30;20077;-90
2023/06/27 02:17:38;;;;;;;7.82;1.90;;;16.20;99.90;;;;;;4733488;30;20142;-91
2023/06/27 02:20:10;;;;;;;7.13;2.33;;;16.20;99.90;;;;;;4775980;30;20108;-93
2023/06/27 02:22:39;;;;;;;8.82;2.28;;;16.30;99.90;;;;;;4740693;30;20060;-91
2023/06/27 02:25:06;;;;;;;7.28;2.00;;;16.20;99.90;;;;;;4763485;30;20032;-93
2023/06/27 02:27:34;;;;;;;10.65;2.28;;;16.20;99.90;;;;;;4762512;30;20066;-91
2023/06/27 02:30:10;;;;;;;8.90;2.63;;;16.20;99.90;;;;;;4762587;30;20055;-92
2023/06/27 02:32:37;;;;;;;9.63;1.80;;;16.20;99.90;;;;;;4741395;30;20051;-90
2023/06/27 02:35:07;;;;;;;6.60;2.10;;;16.20;99.90;;;;;;4731018;30;20055;-95
2023/06/27 02:37:33;;;;;;;12.50;2.20;;;16.30;99.90;;;;;;4734260;30;20044;-91
2023/06/27 02:40:03;;;;;;;7.60;2.00;;;16.20;99.90;;;;;;4761601;30;20047;-91
2023/06/27 02:42:29;;;;;;;9.65;2.20;;;16.20;99.90;;;;;;4748913;30;20032;-91
2023/06/27 02:44:57;;;;;;;6.57;1.85;;;16.30;99.90;;;;;;4745721;30;20051;-91
2023/06/27 02:47:23;;;;;;;8.93;2.13;;;16.20;99.90;;;;;;4748294;30;20031;-90
2023/06/27 02:49:50;;;;;;;8.38;2.08;;;16.20;99.90;;;;;;4747999;30;20063;-91
2023/06/27 02:52:20;;;;;;;8.25;2.60;;;16.20;99.90;;;;;;4759583;30;20039;-91
2023/06/27 02:54:49;;;;;;;6.63;1.95;;;16.20;99.90;;;;;;4763094;30;20039;-92
2023/06/27 02:57:16;;;;;;;8.32;2.25;;;16.20;99.90;;;;;;4730237;30;20430;-90
2023/06/27 02:59:47;;;;;;;8.30;2.13;;;16.10;99.90;;;;;;4731252;30;20051;-93
2023/06/27 03:02:17;;;;;;;6.35;1.75;;;16.20;99.90;;;;;;4756495;30;20420;-90
2023/06/27 03:04:46;;;;;;;6.32;1.95;;;16.20;99.90;;;;;;4757162;30;20047;-91
2023/06/27 03:07:15;;;;;;;9.15;2.05;;;16.20;99.90;;;;;;4773637;30;20028;-91
2023/06/27 03:09:41;;;;;;;8.45;2.50;;;16.20;99.90;;;;;;4743755;30;20054;-92
2023/06/27 03:12:08;;;;;;;6.72;2.20;;;16.20;99.90;;;;;;4758927;30;20032;-91
2023/06/27 03:14:36;;;;;;;8.43;1.98;;;16.20;99.90;;;;;;4741881;30;20086;-92
2023/06/27 03:17:05;;;;;;;6.45;1.90;;;16.20;99.90;;;;;;4759525;30;20028;-92
2023/06/27 03:19:35;;;;;;;5.68;1.95;;;16.20;99.90;;;;;;4728876;30;20050;-90
2023/06/27 03:22:02;;;;;;;7.07;1.95;;;16.20;99.90;;;;;;4745779;30;20039;-90
2023/06/27 03:24:29;;;;;;;7.10;2.05;;;16.20;99.90;;;;;;4745290;30;20032;-91
2023/06/27 03:26:56;;;;;;;11.00;2.28;;;16.20;99.90;;;;;;4744649;30;20035;-91
2023/06/27 03:29:23;;;;;;;6.53;2.10;;;16.20;99.90;;;;;;4759229;30;20101;-91
2023/06/27 03:31:51;;;;;;;7.90;1.77;;;16.20;99.90;;;;;;4744826;30;20039;-91
2023/06/27 03:34:19;;;;;;;8.00;2.03;;;16.20;99.90;;;;;;4773674;30;20040;-91
2023/06/27 03:36:45;;;;;;;5.80;2.03;;;16.20;99.90;;;;;;4734927;30;20093;-90
2023/06/27 03:39:11;;;;;;;5.80;2.10;;;16.20;99.90;;;;;;4744321;30;20495;-90
2023/06/27 03:41:37;;;;;;;8.88;2.47;;;16.20;99.90;;;;;;4744049;30;20107;-90
2023/06/27 03:44:08;;;;;;;7.47;1.77;;;16.20;99.90;;;;;;4745106;30;20042;-90
2023/06/27 03:46:39;;;;;;;10.10;1.80;;;16.30;99.90;;;;;;4716851;30;20302;-89
2023/06/27 03:49:12;;;;;;;8.95;1.98;;;16.30;99.90;;;;;;4743522;30;20070;-91
2023/06/27 03:51:40;;;;;;;10.13;1.95;;;16.30;99.90;;;;;;4754295;30;20032;-92
2023/06/27 03:54:10;;;;;;;7.57;2.30;;;16.30;99.90;;;;;;4733348;30;20055;-90
2023/06/27 03:56:44;;;;;;;7.93;2.08;;;16.20;99.90;;;;;;4776647;30;20055;-90
2023/06/27 03:59:18;;;;;;;6.75;1.85;;;16.30;99.90;;;;;;4761117;30;20063;-91
2023/06/27 04:01:46;;;;;;;9.85;2.30;;;16.20;99.90;;;;;;4732183;30;20043;-91
2023/06/27 04:04:16;;;;;;;9.95;2.33;;;16.30;99.90;;;;;;4760578;30;20039;-91
2023/06/27 04:06:46;;;;;;;6.65;2.00;;;16.30;99.90;;;;;;4747797;30;20042;-90
2023/06/27 04:09:13;;;;;;;8.65;2.15;;;16.30;99.90;;;;;;4746702;30;20127;-90
2023/06/27 04:11:44;;;;;;;9.00;1.95;;;16.30;99.90;;;;;;4732228;30;20050;-90
2023/06/27 04:14:10;;;;;;;8.85;2.13;;;16.30;99.90;;;;;;4746329;30;20058;-90
2023/06/27 04:16:37;;;;;;;7.28;2.03;;;16.30;99.90;;;;;;4746060;30;20052;-91
2023/06/27 04:19:06;;;;;;;7.95;1.92;;;16.30;99.90;;;;;;4761140;30;20040;-90
2023/06/27 04:21:32;;;;;;;7.28;1.95;;;16.30;99.90;;;;;;4776096;30;20399;-90
2023/06/27 04:24:06;;;;;;;9.10;1.88;;;16.30;99.90;;;;;;4744006;30;20035;-91
2023/06/27 04:26:38;;;;;;;9.23;1.88;;;16.30;99.90;;;;;;4746413;30;20043;-91
2023/06/27 04:29:05;;;;;;;10.25;2.50;;;16.40;99.90;;;;;;4746179;30;20100;-91
2023/06/27 04:32:09;;;;;;;7.20;1.73;;;16.40;99.90;;;;;;4759656;30;20052;-91
2023/06/27 04:34:50;;;;;;;11.98;2.00;;;16.40;99.90;;;;;;4760639;30;20031;-91
2023/06/27 04:37:18;;;;;;;9.20;1.83;;;16.40;99.90;;;;;;4755556;30;20035;-90
2023/06/27 04:39:44;;;;;;;8.07;1.77;;;16.40;99.90;;;;;;4727028;30;20093;-90
2023/06/27 04:42:14;;;;;;;6.95;1.90;;;16.40;99.90;;;;;;4732165;30;20060;-90
2023/06/27 04:44:40;;;;;;;10.00;1.90;;;16.40;99.90;;;;;;4739902;30;20047;-90
2023/06/27 04:47:06;;;;;;;8.88;1.77;;;16.50;99.90;;;;;;4790755;30;20110;-89
2023/06/27 04:49:47;;;;;;;12.77;2.08;;;16.50;99.90;;;;;;4748658;30;20101;-90
2023/06/27 04:52:13;;;;;;;6.30;1.95;;;16.50;99.90;;;;;;4765622;30;20062;-90
2023/06/27 04:54:43;;;;;;;8.32;2.10;;;16.50;99.90;;;;;;4728800;30;20444;-89
2023/06/27 04:57:10;;;;;;;9.52;2.22;;;16.60;99.90;;;;;;4717964;30;20074;-90
2023/06/27 04:59:38;;;;;;;10.77;2.70;;;16.60;99.90;;;;;;4733023;30;20074;-90
2023/06/27 05:02:04;;;;;;;10.23;1.85;;;16.60;99.90;;;;;;4762395;30;20114;-90
2023/06/27 05:04:30;;;;;;;7.90;1.80;;;16.60;99.90;;;;;;4765707;30;20337;-90
2023/06/27 05:06:57;;;;;;;9.75;2.50;;;16.70;99.90;;;;;;4722578;30;20090;-90
2023/06/27 05:09:24;;;;;;;7.75;1.90;;;16.70;99.90;;;;;;4749721;30;20071;-91
2023/06/27 05:11:50;;;;;;;10.80;2.05;;;16.80;99.90;;;;;;4717898;30;20121;-90
2023/06/27 05:14:17;;;;;;;8.25;1.83;;;16.80;99.90;;;;;;4749056;30;20071;-91
2023/06/27 05:16:49;;;;;;;10.13;2.08;;;16.80;99.90;;;;;;4780775;30;20050;-91
2023/06/27 05:19:24;;;;;;;8.32;2.10;;;17.00;99.90;;;;;;4750179;30;20036;-90
2023/06/27 05:21:58;;;;;;;6.63;1.77;;;16.90;99.90;;;;;;4768137;30;20059;-91
2023/06/27 05:24:27;;;;;;;10.15;2.47;;;17.00;99.90;;;;;;4724325;30;20040;-90
2023/06/27 05:26:58;;;;;;;10.98;2.10;;;17.00;99.90;;;;;;4738450;30;20059;-90
2023/06/27 05:29:39;;;;;;;8.85;1.80;;;17.10;99.90;;;;;;4778819;30;20043;-90
2023/06/27 05:32:14;;;;;;;6.60;1.60;;;17.10;99.90;;;;;;4751589;30;20319;-89
2023/06/27 05:34:45;;;;;;;6.07;1.55;;;17.20;99.90;;;;;;4717129;30;20055;-90
2023/06/27 05:37:14;;;;;;;8.55;1.70;;;17.20;99.90;;;;;;4737380;30;20069;-90
2023/06/27 05:39:40;;;;;;;6.63;1.63;;;17.30;99.90;;;;;;4734887;30;20059;-90
2023/06/27 05:42:07;;;;;;;6.93;1.50;;;17.30;99.90;;;;;;4749720;30;20139;-89
2023/06/27 05:44:38;;;;;;;6.38;1.60;;;17.30;99.90;;;;;;4764535;30;20032;-90
2023/06/27 05:47:12;;;;;;;5.97;1.50;;;17.40;99.90;;;;;;4761848;30;20024;-90
2023/06/27 05:49:44;;;;;;;5.85;1.50;;;17.40;99.90;;;;;;4735624;30;20071;-90
2023/06/27 05:52:13;;;;;;;9.05;1.63;;;17.50;99.90;;;;;;4736025;30;20058;-89
2023/06/27 05:54:42;;;;;;;6.47;1.52;;;17.50;99.90;;;;;;4756654;30;20130;-92
2023/06/27 05:57:13;;;;;;;6.25;2.05;;;17.50;99.90;;;;;;4735282;30;20402;-91
2023/06/27 05:59:48;;;;;;;8.30;1.70;;;17.60;99.90;;;;;;4750096;30;20066;-90
2023/06/27 06:02:17;;;;;;;8.07;1.70;;;17.70;99.90;;;;;;4736909;30;20098;-91
2023/06/27 06:04:50;;;;;;;7.80;1.73;;;17.70;99.90;;;;;;4737119;30;20313;-90
2023/06/27 06:07:20;;;;;;;7.72;1.90;;;17.80;99.90;;;;;;4748524;30;20032;-92
2023/06/27 06:09:56;;;;;;;7.07;1.40;;;17.80;99.90;;;;;;4778281;30;20040;-92
2023/06/27 06:12:41;;;;;;;;;;;;;;;;;;;;;
2023/06/27 06:15:12;;;;;;;9.63;1.60;;;18.00;99.90;;;;;;4762022;30;20048;-93
2023/06/27 06:17:45;;;;;;;6.63;1.88;;;18.00;99.90;;;;;;4749549;30;20036;-93
2023/06/27 06:20:34;;;;;;;;;;;;;;;;;;;;;
2023/06/27 06:23:04;;;;;;;8.48;1.70;;;18.20;99.90;;;;;;4756694;30;20036;-92
2023/06/27 06:25:33;;;;;;;9.18;1.70;;;18.30;99.90;;;;;;4744061;30;20485;-92
2023/06/27 06:28:05;;;;;;;7.75;1.52;;;18.40;99.90;;;;;;4760266;30;20043;-92
2023/06/27 06:30:40;;;;;;;9.88;1.67;;;18.50;99.90;;;;;;4777179;30;20116;-92
2023/06/27 06:33:13;;;;;;;7.50;1.67;;;18.60;99.90;;;;;;4777913;30;20044;-92
2023/06/27 06:35:49;;;;;;;5.63;1.55;;;18.70;99.90;;;;;;4762668;30;20044;-92
2023/06/27 06:38:22;;;;;;;9.50;2.03;;;18.70;99.90;;;;;;4748398;30;20055;-92
2023/06/27 06:40:59;;;;;;;9.13;1.70;;;18.80;99.90;;;;;;4735290;30;20446;-92
2023/06/27 06:43:30;;;;;;;9.00;2.03;;;18.90;99.90;;;;;;4747284;30;20040;-93
2023/06/27 06:46:09;;;;;;;6.35;1.80;;;19.00;99.90;;;;;;4747691;30;20039;-92
2023/06/27 06:48:44;;;;;;;7.22;1.77;;;19.10;99.90;;;;;;4732026;30;20044;-92
2023/06/27 06:51:26;;;;;;;4.95;1.58;;;19.20;99.90;;;;;;4732872;30;20055;-92
2023/06/27 06:53:57;;;;;;;7.82;1.50;;;19.30;99.90;;;;;;4732941;30;20036;-92
2023/06/27 06:56:37;;;;;;;8.27;1.70;;;19.30;99.90;;;;;;4751118;30;20155;-92
2023/06/27 06:59:06;;;;;;;11.00;2.00;;;19.40;99.90;;;;;;4732390;30;20036;-92
2023/06/27 07:01:51;;;;;;;9.40;1.83;;;19.50;99.90;;;;;;4749924;30;20086;-91
2023/06/27 07:04:24;;;;;;;8.05;1.50;;;19.50;99.90;;;;;;4733274;30;20425;-90
2023/06/27 07:07:19;;;;;;;8.00;1.75;;;19.40;99.90;;;;;;4749897;30;20459;-92
2023/06/27 07:10:04;;;;;;;11.00;1.90;;;19.50;99.90;;;;;;4734263;30;20060;-92
2023/06/27 07:12:45;;;;;;;9.35;2.13;;;19.50;99.90;;;;;;4734268;30;20040;-92
2023/06/27 07:15:22;;;;;;;8.27;1.55;;;19.40;99.90;;;;;;4720091;30;20469;-92
2023/06/27 07:17:52;;;;;;;9.35;1.70;;;19.40;99.90;;;;;;4732773;30;20147;-92
2023/06/27 07:20:30;;;;;;;9.05;1.77;;;19.50;99.90;;;;;;4720341;30;20353;-92
2023/06/27 07:23:01;;;;;;;8.80;1.80;;;19.50;99.90;;;;;;4733849;30;20354;-92
2023/06/27 07:25:40;;;;;;;6.97;1.52;;;19.50;99.90;;;;;;4718745;30;20075;-92
2023/06/27 07:28:09;;;;;;;8.00;1.83;;;19.50;99.90;;;;;;4719759;30;20044;-92
2023/06/27 07:30:38;;;;;;;8.60;1.65;;;19.50;99.90;;;;;;4747151;30;20067;-92
2023/06/27 07:33:10;;;;;;;5.80;1.45;;;19.50;99.90;;;;;;4719076;30;20043;-92
2023/06/27 07:35:41;;;;;;;14.48;1.80;;;19.60;99.90;;;;;;4733531;30;20323;-92
2023/06/27 07:38:08;;;;;;;8.00;1.70;;;19.60;99.90;;;;;;4732628;30;20040;-92
2023/06/27 07:41:14;;;;;;;11.27;1.70;;;19.70;99.90;;;;;;4718062;30;20155;-92
2023/06/27 07:43:54;;;;;;;10.85;1.50;;;19.70;99.90;;;;;;4732424;30;20040;-92
2023/06/27 07:46:23;;;;;;;11.65;2.13;;;19.70;99.90;;;;;;4718718;30;20040;-91
2023/06/27 07:48:52;;;;;;;10.48;1.70;;;19.80;99.90;;;;;;4732305;30;20032;-90
2023/06/27 07:51:35;;;;;;;9.38;1.60;;;19.80;99.90;;;;;;4732894;30;20314;-92
2023/06/27 07:54:06;;;;;;;7.30;1.80;;;19.80;99.90;;;;;;4734109;30;20040;-91
2023/06/27 07:56:54;;;;;;;8.38;1.77;;;19.80;99.90;;;;;;4740160;30;20056;-91
2023/06/27 07:59:59;;;;;;;6.60;1.65;;;19.80;99.90;;;;;;4766295;30;20074;-91
2023/06/27 08:02:49;;;;;;;7.53;1.42;;;19.90;99.90;;;;;;4742662;30;20123;-91
2023/06/27 08:05:18;;;;;;;6.28;1.90;;;19.90;99.90;;;;;;4779384;30;20043;-92
2023/06/27 08:07:48;;;;;;;8.93;1.55;;;20.00;99.90;;;;;;4749947;30;20433;-92
2023/06/27 08:10:48;;;;;;;;;;;;;;;;;;;;;
2023/06/27 08:13:24;;;;;;;5.72;1.40;;;20.00;99.90;;;;;;4777185;30;20117;-91
2023/06/27 08:16:33;;;;;;;6.82;1.40;;;20.10;99.90;;;;;;4734633;30;20086;-91
2023/06/27 08:19:40;;;;;;;5.85;1.50;;;20.20;99.90;;;;;;4750364;30;20059;-92
2023/06/27 08:22:19;;;;;;;7.05;1.85;;;20.20;99.50;;;;;;4778451;30;20350;-92
2023/06/27 08:38:17;;;;;;;8.38;1.58;;;20.40;99.00;;;;;;4780272;30;20127;-91
2023/06/27 08:40:46;;;;;;;5.72;1.50;;;20.50;98.80;;;;;;4751593;30;20086;-92
2023/06/27 08:43:13;;;;;;;7.22;1.63;;;20.50;98.70;;;;;;4766314;30;20140;-91
2023/06/27 08:45:53;;;;;;;;;;;;;;;;;;;;;
2023/06/27 08:48:27;;;;;;;6.55;1.60;;;20.40;98.40;;;;;;4767764;30;20043;-91
2023/06/27 08:51:51;;;;;;;6.53;1.52;;;20.30;98.40;;;;;;4723892;30;20211;-91
2023/06/27 08:56:16;;;;;;;5.80;1.40;;;20.40;98.30;;;;;;4693055;30;20049;-91
2023/06/27 09:04:01;;;;;;;8.15;1.92;;;20.50;98.70;;;;;;4676924;30;20411;-91
2023/06/27 09:11:58;;;;;;;6.10;1.50;;;20.60;98.20;;;;;;4625996;31;20090;-92
2023/06/27 09:14:43;;;;;;;5.82;1.65;;;20.60;97.90;;;;;;4600272;31;20250;-92
2023/06/27 09:22:02;;;;;;;8.57;1.60;;;20.50;97.90;;;;;;4675985;30;20498;-92
2023/06/27 09:25:21;;;;;;;6.53;1.55;;;20.60;98.10;;;;;;4658789;30;20109;-92
2023/06/27 09:28:40;;;;;;;7.30;1.45;;;20.70;98.00;;;;;;4661266;30;20054;-91
2023/06/27 09:32:04;;;;;;;8.80;1.67;;;20.80;98.00;;;;;;4655428;30;20069;-92
2023/06/27 09:40:02;;;;;;;9.77;1.67;;;20.90;97.80;;;;;;4666395;30;20045;-91
2023/06/27 09:47:11;;;;;;;;;;;;;;;;;;;;;
2023/06/27 09:50:06;;;;;;;7.43;1.60;;;21.20;96.90;;;;;;4695727;30;20117;-92
2023/06/27 09:52:53;;;;;;;6.78;1.50;;;21.20;96.80;;;;;;4695855;30;20045;-92
2023/06/27 09:59:42;;;;;;;6.70;1.45;;;21.30;96.70;;;;;;4681353;30;20159;-91
2023/06/27 10:02:32;;;;;;;5.63;1.33;;;21.30;96.60;;;;;;4685595;30;20033;-92
2023/06/27 10:05:43;;;;;;;6.65;1.73;;;21.30;96.20;;;;;;4732969;30;20040;-93
2023/06/27 10:08:12;;;;;;;9.13;1.90;;;21.40;96.10;;;;;;4746566;30;20182;-92
2023/06/27 10:10:41;;;;;;;5.07;1.70;;;21.50;96.30;;;;;;4731925;30;20044;-92
2023/06/27 10:13:29;;;;;;;5.50;1.50;;;21.60;96.50;;;;;;4733832;30;20085;-93
2023/06/27 10:15:57;;;;;;;9.52;2.20;;;21.70;96.30;;;;;;4717764;30;20040;-95
2023/06/27 10:18:29;;;;;;;7.50;1.67;;;21.70;96.30;;;;;;4732064;30;20119;-93
2023/06/27 10:21:05;;;;;;;9.00;1.80;;;21.70;96.20;;;;;;4758923;30;20036;-93
2023/06/27 10:24:00;;;;;;;9.45;2.05;;;21.70;95.70;;;;;;4744443;30;20036;-93
2023/06/27 10:26:27;;;;;;;6.57;1.85;;;21.70;96.00;;;;;;4730897;30;20117;-95
2023/06/27 10:28:55;;;;;;;6.95;1.60;;;21.70;96.10;;;;;;4730735;30;20040;-93
2023/06/27 10:31:47;;;;;;;6.00;1.50;;;21.70;95.90;;;;;;4717025;30;20076;-94
2023/06/27 10:34:41;;;;;;;7.57;1.65;;;21.80;95.90;;;;;;4719716;30;20033;-94
2023/06/27 10:37:34;;;;;;;;;;;;;;;;;;;;;
2023/06/27 10:40:14;;;;;;;9.30;1.77;;;21.90;95.80;;;;;;4732526;30;20040;-93
2023/06/27 10:42:43;;;;;;;10.13;1.80;;;21.80;95.80;;;;;;4702533;30;20040;-94
2023/06/27 10:45:22;;;;;;;8.15;1.88;;;21.80;95.90;;;;;;4759833;30;20041;-94
2023/06/27 10:48:02;;;;;;;7.85;1.58;;;21.90;96.10;;;;;;4715030;30;20071;-93
2023/06/27 10:50:37;;;;;;;9.45;1.95;;;22.00;96.20;;;;;;4744091;30;20036;-93
2023/06/27 10:53:09;;;;;;;12.00;1.67;;;22.10;95.90;;;;;;4757852;30;20051;-92
2023/06/27 10:55:46;;;;;;;8.93;1.67;;;22.10;95.80;;;;;;4715516;30;20107;-93
2023/06/27 10:58:15;;;;;;;10.75;1.98;;;22.10;95.40;;;;;;4736664;30;20632;-92
2023/06/27 11:00:50;;;;;;;9.10;1.70;;;22.10;95.20;;;;;;4761003;30;20073;-93
2023/06/27 11:03:28;;;;;;;7.57;1.95;;;22.10;95.20;;;;;;4762210;30;20061;-91
2023/06/27 11:06:13;;;;;;;6.90;1.80;;;22.10;95.30;;;;;;4777058;30;20032;-91
2023/06/27 11:08:42;;;;;;;6.97;1.50;;;22.10;95.10;;;;;;4762830;30;20044;-92
2023/06/27 11:11:13;;;;;;;5.22;1.60;;;22.00;95.30;;;;;;4770599;30;20068;-92
2023/06/27 11:13:44;;;;;;;6.88;1.60;;;22.00;95.10;;;;;;4746123;30;20107;-92
2023/06/27 11:16:14;;;;;;;8.40;1.83;;;22.00;95.10;;;;;;4760700;30;20039;-92
2023/06/27 11:18:54;;;;;;;8.25;1.80;;;22.00;95.20;;;;;;4747156;30;20040;-92
2023/06/27 11:21:23;;;;;;;6.10;1.30;;;22.10;94.60;;;;;;4775115;30;20043;-92
2023/06/27 11:24:03;;;;;;;7.50;1.58;;;22.10;94.40;;;;;;4746674;30;20357;-92
2023/06/27 11:26:34;;;;;;;8.00;1.58;;;22.10;94.10;;;;;;4747584;30;20040;-92
2023/06/27 11:29:44;;;;;;;8.38;1.73;;;22.10;94.30;;;;;;4778551;30;20040;-92
2023/06/27 11:32:16;;;;;;;6.50;1.50;;;22.10;94.20;;;;;;4765931;30;20063;-92
2023/06/27 11:34:42;;;;;;;7.30;1.95;;;22.20;94.40;;;;;;4763226;30;20031;-92
2023/06/27 11:37:21;;;;;;;6.03;1.45;;;22.20;94.10;;;;;;4778726;30;20031;-93
2023/06/27 11:40:06;;;;;;;6.95;1.48;;;22.30;94.00;;;;;;4765381;30;20048;-92
2023/06/27 11:42:51;;;;;;;;;;;;;;;;;;;;;
2023/06/27 11:45:33;;;;;;;5.53;1.40;;;22.40;93.70;;;;;;4750496;30;20391;-93
2023/06/27 11:48:05;;;;;;;7.50;1.48;;;22.40;93.20;;;;;;4747596;30;20040;-93
2023/06/27 11:51:05;;;;;;;4.45;1.27;;;22.30;92.80;;;;;;4764485;30;20361;-92
2023/06/27 11:57:08;;;;;;;5.40;1.27;;;22.50;93.60;;;;;;4766834;30;20428;-93
2023/06/27 11:59:49;;;;;;;;;;;;;;;;;;;;;
2023/06/27 12:02:45;;;;;;;6.20;1.52;;;22.70;93.80;;;;;;4748975;30;20031;-93
2023/06/27 12:05:22;;;;;;;4.80;1.48;;;22.70;93.40;;;;;;4757418;30;20421;-89
2023/06/27 12:11:37;;;;;;;6.30;1.63;;;22.70;94.10;;;;;;4758640;30;20054;-89
2023/06/27 12:18:45;;;;;;;9.90;2.05;;;22.60;94.30;;;;;;4763262;30;20135;-89
2023/06/27 12:24:49;;;;;;;7.50;1.58;;;22.50;94.30;;;;;;4746653;30;20036;-91
2023/06/27 12:27:15;;;;;;;11.73;2.10;;;22.40;94.20;;;;;;4776453;30;20046;-89
2023/06/27 12:34:20;;;;;;;4.20;1.27;;;22.40;94.00;;;;;;4761659;30;20040;-90
2023/06/27 12:36:47;;;;;;;9.93;1.70;;;22.30;92.90;;;;;;4761480;30;20558;-92
2023/06/27 12:39:17;;;;;;;6.22;1.40;;;22.30;93.40;;;;;;4760643;30;20162;-91
2023/06/27 12:41:46;;;;;;;7.97;1.60;;;22.10;93.70;;;;;;4765991;30;20127;-91
2023/06/27 12:44:44;;;;;;;6.55;1.30;;;22.20;93.90;;;;;;4776029;30;20063;-93
2023/06/27 12:48:11;;;;;;;7.72;1.52;;;22.30;94.10;;;;;;4745409;30;20050;-94
2023/06/27 12:55:10;;;;;;;9.10;1.60;;;22.20;93.90;;;;;;4710361;30;20132;-92
2023/06/27 12:59:06;;;;;;;7.30;1.65;;;22.10;93.90;;;;;;4703708;30;20092;-93
2023/06/27 13:10:56;;;;;;;7.70;1.70;;;21.90;94.20;;;;;;4696017;30;20107;-92
2023/06/27 13:18:06;;;;;;;9.40;1.90;;;21.70;94.90;;;;;;4695094;30;20173;-92
2023/06/27 13:47:11;;;;;;;6.85;1.88;;;21.90;94.70;;;;;;4744662;30;20107;-91
2023/06/27 13:49:37;;;;;;;7.63;2.03;;;21.90;94.60;;;;;;4714823;30;20779;-93
2023/06/27 13:52:10;;;;;;;9.98;2.28;;;21.70;94.70;;;;;;4729868;30;20434;-93
2023/06/27 13:54:40;;;;;;;9.40;1.60;;;21.70;94.80;;;;;;4714500;30;20055;-92
2023/06/27 13:57:10;;;;;;;8.68;1.63;;;21.80;94.60;;;;;;4728571;30;20342;-94
2023/06/27 14:03:23;;;;;;;4.47;1.58;;;21.70;94.00;;;;;;4720877;30;20405;-93
2023/06/27 14:06:15;;;;;;;6.65;1.70;;;21.60;94.20;;;;;;4698802;30;20049;-91
2023/06/27 14:08:41;;;;;;;5.57;1.52;;;21.60;94.20;;;;;;4744368;30;20106;-90
2023/06/27 14:11:14;;;;;;;8.45;1.70;;;21.60;94.30;;;;;;4729988;30;20081;-90
2023/06/27 14:13:50;;;;;;;5.82;1.70;;;21.60;94.20;;;;;;4744234;30;20115;-90
2023/06/27 14:16:18;;;;;;;6.05;1.42;;;21.60;94.30;;;;;;4745600;30;20048;-91
2023/06/27 14:18:47;;;;;;;6.97;1.80;;;21.60;94.50;;;;;;4746810;30;20062;-90
2023/06/27 14:21:16;;;;;;;3.97;1.27;;;21.70;94.50;;;;;;4743965;30;20070;-92
2023/06/27 14:23:45;;;;;;;6.90;1.50;;;21.70;94.30;;;;;;4746960;30;20332;-90
2023/06/27 14:26:13;;;;;;;5.78;1.77;;;21.70;94.40;;;;;;4737975;30;20341;-89
2023/06/27 14:28:42;;;;;;;6.80;1.75;;;21.70;94.10;;;;;;4761768;30;20027;-90
2023/06/27 14:31:08;;;;;;;6.22;1.95;;;21.70;94.00;;;;;;4729466;30;20063;-91
2023/06/27 14:33:34;;;;;;;7.05;1.70;;;21.70;94.20;;;;;;4744204;30;20039;-90
2023/06/27 14:36:06;;;;;;;6.93;2.03;;;21.80;94.50;;;;;;4758374;30;20055;-90
2023/06/27 14:38:39;;;;;;;6.15;1.40;;;21.90;94.60;;;;;;4744789;30;20046;-90
2023/06/27 14:41:12;;;;;;;6.25;1.70;;;22.00;94.20;;;;;;4787043;30;20039;-90
2023/06/27 14:43:40;;;;;;;8.25;1.70;;;22.00;94.20;;;;;;4744403;30;20035;-91
2023/06/27 14:46:06;;;;;;;8.25;2.00;;;22.00;94.20;;;;;;4762538;30;20028;-92
2023/06/27 14:48:41;;;;;;;9.60;1.73;;;22.00;94.30;;;;;;4760754;30;20054;-91
2023/06/27 14:51:12;;;;;;;7.53;1.95;;;22.00;94.30;;;;;;4761782;30;20061;-92
2023/06/27 14:53:41;;;;;;;12.82;1.92;;;22.00;94.40;;;;;;4732885;30;20336;-92
2023/06/27 14:56:15;;;;;;;6.88;1.98;;;22.00;94.60;;;;;;4744337;30;20040;-93
2023/06/27 14:58:47;;;;;;;5.10;1.58;;;21.90;94.60;;;;;;4759131;30;20119;-90
2023/06/27 15:06:11;;;;;;;8.88;2.13;;;21.90;94.00;;;;;;4776171;30;20038;-90
2023/06/27 15:09:00;;;;;;;5.72;1.52;;;21.80;94.20;;;;;;4732613;30;20036;-90
2023/06/27 15:12:04;;;;;;;6.13;1.65;;;21.70;94.40;;;;;;4731241;30;20032;-90
2023/06/27 15:14:51;;;;;;;7.65;1.60;;;21.60;94.60;;;;;;4732098;30;20039;-90
2023/06/27 15:17:19;;;;;;;8.45;1.75;;;21.40;94.80;;;;;;4758106;30;20050;-91
2023/06/27 15:19:46;;;;;;;8.23;1.75;;;21.30;95.10;;;;;;4725621;30;20040;-91
2023/06/27 15:22:12;;;;;;;7.97;1.67;;;21.30;95.10;;;;;;4757908;30;20118;-91
2023/06/27 15:24:44;;;;;;;9.15;1.88;;;21.20;95.00;;;;;;4757964;30;20078;-92
2023/06/27 15:27:14;;;;;;;6.55;1.33;;;21.20;95.00;;;;;;4743377;30;20095;-92
2023/06/27 15:29:53;;;;;;;5.68;1.40;;;21.00;94.50;;;;;;4776945;30;20032;-91
2023/06/27 15:32:46;;;;;;;5.57;1.50;;;21.00;94.30;;;;;;4766311;30;20048;-92